createdAt,value
2018-04-13T00:01:35.008Z,82.20
2018-04-13T00:04:03.925Z,82.20
2018-04-13T00:06:33.672Z,83.00
2018-04-13T00:09:03.496Z,84.90
2018-04-13T00:11:32.376Z,84.80
2018-04-13T00:14:02.025Z,84.20
2018-04-13T00:16:31.834Z,84.20
2018-04-13T00:19:00.717Z,84.50
2018-04-13T00:21:29.614Z,84.30
2018-04-13T00:23:58.487Z,83.50
2018-04-13T00:26:27.400Z,84.00
2018-04-13T00:28:56.353Z,85.00
2018-04-13T00:31:26.949Z,84.60
2018-04-13T00:33:57.412Z,84.90
2018-04-13T00:36:27.068Z,85.30
2018-04-13T00:38:56.066Z,85.20
2018-04-13T00:41:26.504Z,86.60
2018-04-13T00:43:55.392Z,86.50
2018-04-13T00:46:24.291Z,87.00
2018-04-13T00:48:53.193Z,88.00
2018-04-13T00:51:22.952Z,87.50
2018-04-13T00:53:51.910Z,87.50
2018-04-13T00:56:21.561Z,87.40
2018-04-13T00:58:50.424Z,87.30
2018-04-13T01:01:19.318Z,87.40
2018-04-13T01:03:48.217Z,87.30
2018-04-13T01:06:17.078Z,89.00
2018-04-13T01:08:46.773Z,89.60
2018-04-13T01:11:15.666Z,89.50
2018-04-13T01:13:44.529Z,90.00
2018-04-13T01:16:13.838Z,90.00
2018-04-13T01:18:42.748Z,89.80
2018-04-13T01:21:12.386Z,88.40
2018-04-13T01:23:41.256Z,88.40
2018-04-13T01:26:10.947Z,87.80
2018-04-13T01:28:39.853Z,87.80
2018-04-13T01:31:08.804Z,89.10
2018-04-13T01:33:37.684Z,89.00
2018-04-13T01:36:06.565Z,89.20
2018-04-13T01:38:35.733Z,89.70
2018-04-13T01:41:04.621Z,89.90
2018-04-13T01:43:34.249Z,89.70
2018-04-13T01:46:03.128Z,89.70
2018-04-13T01:48:32.040Z,90.00
2018-04-13T01:51:00.907Z,89.60
2018-04-13T01:53:29.821Z,89.30
2018-04-13T01:55:58.788Z,88.90
2018-04-13T01:58:27.633Z,89.00
2018-04-13T02:00:56.531Z,88.30
2018-04-13T02:03:25.419Z,89.00
2018-04-13T02:05:54.295Z,89.00
2018-04-13T02:08:23.286Z,89.20
2018-04-13T02:10:52.177Z,90.30
2018-04-13T02:13:21.044Z,90.30
2018-04-13T02:15:49.940Z,90.50
2018-04-13T02:18:18.883Z,90.60
2018-04-13T02:20:47.743Z,91.00
2018-04-13T02:23:16.706Z,90.80
2018-04-13T02:25:45.648Z,91.00
2018-04-13T02:28:14.799Z,91.40
2018-04-13T02:30:43.698Z,91.10
2018-04-13T02:33:12.578Z,90.90
2018-04-13T02:35:41.539Z,90.90
2018-04-13T02:38:11.192Z,90.30
2018-04-13T02:40:40.155Z,90.30
2018-04-13T02:43:09.049Z,90.10
2018-04-13T02:45:37.958Z,90.00
2018-04-13T02:48:06.952Z,90.00
2018-04-13T02:50:35.809Z,90.10
2018-04-13T02:53:04.696Z,90.40
2018-04-13T02:55:33.659Z,90.20
2018-04-13T02:58:02.517Z,89.70
2018-04-13T03:00:31.400Z,89.40
2018-04-13T03:03:00.316Z,89.80
2018-04-13T03:05:29.820Z,90.10
2018-04-13T03:07:58.732Z,90.20
2018-04-13T03:10:27.633Z,90.00
2018-04-13T03:12:56.494Z,90.10
2018-04-13T03:15:25.386Z,90.10
2018-04-13T03:17:54.350Z,90.10
2018-04-13T03:20:23.268Z,90.10
2018-04-13T03:22:52.162Z,90.00
2018-04-13T03:25:21.192Z,89.70
2018-04-13T03:27:50.160Z,89.40
2018-04-13T03:30:19.044Z,89.60
2018-04-13T03:32:47.944Z,89.00
2018-04-13T03:35:16.836Z,89.00
2018-04-13T03:37:45.703Z,89.00
2018-04-13T03:40:14.718Z,89.10
2018-04-13T03:42:43.781Z,89.40
2018-04-13T03:45:12.679Z,89.10
2018-04-13T03:47:41.590Z,89.90
2018-04-13T03:50:10.471Z,90.00
2018-04-13T03:52:39.395Z,90.30
2018-04-13T03:55:09.106Z,90.40
2018-04-13T03:57:38.771Z,90.30
2018-04-13T04:00:07.659Z,90.30
2018-04-13T04:02:36.559Z,90.50
2018-04-13T04:05:05.457Z,90.30
2018-04-13T04:07:34.346Z,90.10
2018-04-13T04:10:03.265Z,90.30
2018-04-13T04:12:32.223Z,90.30
2018-04-13T04:15:01.080Z,90.50
2018-04-13T04:17:30.064Z,90.50
2018-04-13T04:20:16.528Z,90.40
2018-04-13T04:23:03.199Z,90.50
2018-04-13T04:28:43.166Z,90.90
2018-04-13T04:31:12.139Z,90.70
2018-04-13T04:33:41.298Z,90.30
2018-04-13T04:36:10.963Z,90.50
2018-04-13T04:38:39.820Z,90.50
2018-04-13T04:41:08.844Z,90.30
2018-04-13T04:43:37.802Z,90.40
2018-04-13T04:46:06.696Z,90.40
2018-04-13T04:48:35.630Z,90.50
2018-04-13T04:51:04.523Z,90.30
2018-04-13T04:53:33.503Z,90.40
2018-04-13T04:56:02.441Z,90.50
2018-04-13T04:58:31.427Z,90.60
2018-04-13T05:01:01.109Z,90.50
2018-04-13T05:03:30.075Z,90.50
2018-04-13T05:05:58.988Z,90.50
2018-04-13T05:08:28.018Z,90.50
2018-04-13T05:10:56.894Z,90.60
2018-04-13T05:13:25.800Z,90.80
2018-04-13T05:15:55.492Z,91.00
2018-04-13T05:18:24.431Z,91.00
2018-04-13T05:20:53.324Z,91.20
2018-04-13T05:23:23.068Z,91.10
2018-04-13T05:25:52.057Z,91.40
2018-04-13T05:28:20.996Z,91.30
2018-04-13T05:30:49.913Z,91.20
2018-04-13T05:33:18.807Z,91.40
2018-04-13T05:35:47.713Z,91.40
2018-04-13T05:38:16.632Z,91.60
2018-04-13T05:40:45.528Z,91.90
2018-04-13T05:43:14.419Z,92.10
2018-04-13T05:45:43.309Z,91.90
2018-04-13T05:48:12.196Z,92.40
2018-04-13T05:50:41.077Z,92.30
2018-04-13T05:53:09.963Z,92.30
2018-04-13T05:55:38.868Z,91.80
2018-04-13T05:58:07.804Z,91.90
2018-04-13T06:00:36.716Z,91.80
2018-04-13T06:03:05.569Z,91.90
2018-04-13T06:05:35.237Z,92.10
2018-04-13T06:08:04.128Z,92.10
2018-04-13T06:10:33.011Z,92.00
2018-04-13T06:13:02.042Z,92.00
2018-04-13T06:15:30.921Z,92.00
2018-04-13T06:18:00.603Z,91.20
2018-04-13T06:20:29.520Z,91.20
2018-04-13T06:22:58.441Z,91.40
2018-04-13T06:25:27.427Z,91.60
2018-04-13T06:27:56.413Z,91.40
2018-04-13T06:30:25.330Z,91.10
2018-04-13T06:32:54.272Z,91.10
2018-04-13T06:35:23.171Z,90.90
2018-04-13T06:37:52.072Z,91.40
2018-04-13T06:40:21.720Z,91.70
2018-04-13T06:42:50.674Z,91.70
2018-04-13T06:45:20.376Z,91.30
2018-04-13T06:47:50.060Z,92.20
2018-04-13T06:50:18.965Z,91.90
2018-04-13T06:52:47.855Z,91.90
2018-04-13T06:55:16.732Z,91.70
2018-04-13T06:57:45.615Z,92.10
2018-04-13T07:00:14.531Z,92.00
2018-04-13T07:02:43.487Z,92.10
2018-04-13T07:05:12.328Z,92.10
2018-04-13T07:07:42.007Z,92.20
2018-04-13T07:10:10.890Z,92.50
2018-04-13T07:12:39.789Z,92.50
2018-04-13T07:15:08.970Z,92.30
2018-04-13T07:17:38.377Z,92.30
2018-04-13T07:20:07.312Z,92.40
2018-04-13T07:22:36.259Z,92.20
2018-04-13T07:25:05.228Z,92.10
2018-04-13T07:27:34.105Z,91.50
2018-04-13T07:30:03.113Z,91.50
2018-04-13T07:32:32.037Z,91.30
2018-04-13T07:35:00.922Z,91.10
2018-04-13T07:37:30.090Z,90.90
2018-04-13T07:39:59.029Z,91.10
2018-04-13T07:42:28.224Z,91.10
2018-04-13T07:44:56.863Z,91.00
2018-04-13T07:47:25.714Z,90.80
2018-04-13T07:49:55.484Z,90.40
2018-04-13T07:52:25.173Z,90.40
2018-04-13T07:54:54.108Z,90.40
2018-04-13T07:57:23.153Z,90.00
2018-04-13T07:59:52.501Z,87.40
2018-04-13T08:02:21.377Z,87.70
2018-04-13T08:04:50.300Z,88.10
2018-04-13T08:07:19.966Z,87.60
2018-04-13T08:09:48.998Z,87.60
2018-04-13T08:12:17.774Z,87.80
2018-04-13T08:14:46.712Z,87.60
2018-04-13T08:17:15.619Z,88.50
2018-04-13T08:19:44.505Z,85.90
2018-04-13T08:22:13.423Z,84.90
2018-04-13T08:24:42.341Z,82.50
2018-04-13T08:27:12.017Z,78.90
2018-04-13T08:29:41.022Z,78.80
2018-04-13T08:32:09.883Z,77.60
2018-04-13T08:34:38.808Z,77.10
2018-04-13T08:37:07.767Z,78.60
2018-04-13T08:39:36.727Z,79.40
2018-04-13T08:42:06.432Z,78.00
2018-04-13T08:44:36.203Z,79.20
2018-04-13T08:47:05.151Z,79.20
2018-04-13T08:49:34.009Z,79.60
2018-04-13T08:52:03.801Z,76.10
2018-04-13T08:54:32.715Z,76.00
2018-04-13T08:57:02.407Z,71.40
2018-04-13T08:59:32.009Z,71.40
2018-04-13T09:02:00.915Z,73.20
2018-04-13T09:04:29.801Z,72.50
2018-04-13T09:06:58.686Z,66.80
2018-04-13T09:09:28.053Z,64.00
2018-04-13T09:11:56.953Z,62.90
2018-04-13T09:14:25.970Z,60.40
2018-04-13T09:16:54.863Z,59.00
2018-04-13T09:19:23.737Z,58.70
2018-04-13T09:21:52.637Z,58.10
2018-04-13T09:24:21.544Z,57.20
2018-04-13T09:26:51.165Z,56.30
2018-04-13T09:29:20.800Z,54.30
2018-04-13T09:31:49.644Z,54.30
2018-04-13T09:34:19.065Z,54.00
2018-04-13T09:36:48.760Z,54.70
2018-04-13T09:39:18.422Z,55.00
2018-04-13T09:41:47.308Z,55.00
2018-04-13T09:44:16.237Z,55.00
2018-04-13T09:46:45.117Z,53.20
2018-04-13T09:49:14.028Z,52.90
2018-04-13T09:51:42.919Z,52.50
2018-04-13T09:54:11.798Z,55.00
2018-04-13T09:56:40.747Z,56.50
2018-04-13T09:59:09.678Z,56.90
2018-04-13T10:01:40.432Z,57.20
2018-04-13T10:04:13.194Z,57.70
2018-04-13T10:06:42.080Z,57.70
2018-04-13T10:09:10.939Z,58.90
2018-04-13T10:11:39.859Z,60.40
2018-04-13T10:14:08.732Z,62.80
2018-04-13T10:16:37.623Z,64.20
2018-04-13T10:19:06.963Z,63.20
2018-04-13T10:21:36.615Z,59.70
2018-04-13T10:24:05.571Z,59.70
2018-04-13T10:26:35.245Z,59.30
2018-04-13T10:29:04.288Z,59.20
2018-04-13T10:31:33.133Z,59.00
2018-04-13T10:34:02.035Z,58.20
2018-04-13T10:36:31.653Z,58.50
2018-04-13T10:39:00.541Z,58.50
2018-04-13T10:41:29.466Z,58.00
2018-04-13T10:43:58.373Z,57.20
2018-04-13T10:46:27.280Z,57.30
2018-04-13T10:48:56.201Z,56.30
2018-04-13T10:51:25.096Z,56.20
2018-04-13T10:53:53.965Z,55.80
2018-04-13T10:56:22.874Z,53.60
2018-04-13T10:58:51.748Z,54.10
2018-04-13T11:01:20.627Z,54.60
2018-04-13T11:03:49.545Z,53.30
2018-04-13T11:06:18.788Z,52.30
2018-04-13T11:08:47.872Z,52.20
2018-04-13T11:11:16.884Z,54.60
2018-04-13T11:13:45.759Z,55.00
2018-04-13T11:16:14.753Z,53.90
2018-04-13T11:18:43.701Z,54.00
2018-04-13T11:21:12.614Z,54.00
2018-04-13T11:23:42.279Z,52.20
2018-04-13T11:26:11.209Z,52.00
2018-04-13T11:28:40.900Z,51.80
2018-04-13T11:31:09.768Z,51.10
2018-04-13T11:33:38.704Z,51.40
2018-04-13T11:36:08.356Z,49.70
2018-04-13T11:38:37.240Z,50.20
2018-04-13T11:41:06.159Z,51.00
2018-04-13T11:43:35.037Z,51.60
2018-04-13T11:46:03.970Z,51.90
2018-04-13T11:48:32.870Z,51.60
2018-04-13T11:51:02.531Z,52.30
2018-04-13T11:53:31.433Z,52.40
2018-04-13T11:56:00.333Z,52.20
2018-04-13T11:58:29.243Z,52.10
2018-04-13T12:00:58.901Z,51.60
2018-04-13T12:03:27.768Z,51.60
2018-04-13T12:05:56.637Z,51.60
2018-04-13T12:08:26.340Z,51.90
2018-04-13T12:10:56.056Z,53.10
2018-04-13T12:13:25.741Z,52.50
2018-04-13T12:15:54.697Z,52.50
2018-04-13T12:18:23.676Z,53.10
2018-04-13T12:20:52.592Z,51.90
2018-04-13T12:23:22.234Z,52.50
2018-04-13T12:25:51.179Z,52.50
2018-04-13T12:28:20.113Z,52.20
2018-04-13T12:30:48.980Z,52.40
2018-04-13T12:33:17.892Z,53.10
2018-04-13T12:35:46.803Z,51.90
2018-04-13T12:38:16.540Z,51.20
2018-04-13T12:40:45.413Z,51.20
2018-04-13T12:43:14.288Z,51.40
2018-04-13T12:45:43.167Z,51.50
2018-04-13T12:48:12.124Z,51.00
2018-04-13T12:50:41.078Z,51.00
2018-04-13T12:53:10.029Z,51.20
2018-04-13T12:55:39.702Z,49.40
2018-04-13T12:58:09.348Z,49.40
2018-04-13T13:00:38.303Z,49.40
2018-04-13T13:03:07.194Z,48.90
2018-04-13T13:05:36.146Z,47.80
2018-04-13T13:08:04.995Z,47.60
2018-04-13T13:10:33.918Z,47.70
2018-04-13T13:13:02.796Z,48.20
2018-04-13T13:15:32.520Z,47.50
2018-04-13T13:18:01.419Z,47.50
2018-04-13T13:20:31.172Z,47.10
2018-04-13T13:23:00.028Z,47.10
2018-04-13T13:25:28.979Z,45.90
2018-04-13T13:27:57.845Z,46.60
2018-04-13T13:30:27.560Z,46.40
2018-04-13T13:32:56.444Z,46.40
2018-04-13T13:35:25.356Z,47.40
2018-04-13T13:37:54.216Z,46.40
2018-04-13T13:40:23.132Z,46.20
2018-04-13T13:42:52.017Z,45.70
2018-04-13T13:45:20.872Z,45.40
2018-04-13T13:47:49.812Z,44.90
2018-04-13T13:50:18.732Z,44.50
2018-04-13T13:52:48.406Z,44.30
2018-04-13T13:55:17.336Z,44.30
2018-04-13T13:57:46.993Z,43.50
2018-04-13T14:00:15.871Z,43.40
2018-04-13T14:02:44.765Z,42.00
2018-04-13T14:05:13.671Z,41.80
2018-04-13T14:07:42.537Z,42.50
2018-04-13T14:10:11.420Z,42.90
2018-04-13T14:12:40.370Z,41.60
2018-04-13T14:15:09.243Z,42.50
2018-04-13T14:17:38.151Z,44.30
2018-04-13T14:20:07.007Z,44.00
2018-04-13T14:22:35.911Z,42.80
2018-04-13T14:25:04.813Z,42.50
2018-04-13T14:27:33.720Z,43.50
2018-04-13T14:30:02.597Z,43.40
2018-04-13T14:32:31.586Z,42.70
2018-04-13T14:35:01.225Z,42.80
2018-04-13T14:37:30.860Z,43.30
2018-04-13T14:39:59.746Z,43.30
2018-04-13T14:42:28.621Z,43.20
2018-04-13T14:44:58.281Z,43.30
2018-04-13T14:47:27.169Z,43.30
2018-04-13T14:49:56.089Z,43.50
2018-04-13T14:52:24.978Z,43.60
2018-04-13T14:54:53.922Z,43.90
2018-04-13T14:57:22.769Z,44.10
2018-04-13T14:59:51.712Z,44.00
2018-04-13T15:02:20.633Z,44.10
2018-04-13T15:04:49.742Z,43.40
2018-04-13T15:07:18.664Z,42.60
2018-04-13T15:09:47.618Z,42.40
2018-04-13T15:12:16.516Z,43.10
2018-04-13T15:14:45.375Z,43.40
2018-04-13T15:17:14.295Z,42.40
2018-04-13T15:19:43.159Z,42.50
2018-04-13T15:22:12.057Z,41.90
2018-04-13T15:24:42.505Z,42.50
2018-04-13T15:27:12.157Z,42.40
2018-04-13T15:29:41.039Z,41.70
2018-04-13T15:32:10.027Z,41.30
2018-04-13T15:34:38.928Z,41.60
2018-04-13T15:37:07.803Z,41.50
2018-04-13T15:39:36.670Z,41.10
2018-04-13T15:42:06.373Z,41.50
2018-04-13T15:44:35.280Z,40.90
2018-04-13T15:47:04.902Z,40.60
2018-04-13T15:49:33.740Z,40.60
2018-04-13T15:52:02.622Z,40.60
2018-04-13T15:54:31.529Z,40.80
2018-04-13T15:57:00.408Z,40.90
2018-04-13T15:59:29.327Z,41.70
2018-04-13T16:01:58.214Z,40.90
2018-04-13T16:04:27.092Z,40.20
2018-04-13T16:06:55.977Z,40.70
2018-04-13T16:09:24.853Z,41.20
2018-04-13T16:11:53.711Z,40.50
2018-04-13T16:14:22.828Z,40.70
2018-04-13T16:16:51.728Z,41.00
2018-04-13T16:19:20.596Z,40.60
2018-04-13T16:21:49.455Z,40.90
2018-04-13T16:24:18.401Z,40.40
2018-04-13T16:26:47.265Z,40.70
2018-04-13T16:29:16.190Z,41.10
2018-04-13T16:31:45.126Z,40.50
2018-04-13T16:34:14.023Z,40.30
2018-04-13T16:36:42.908Z,40.30
2018-04-13T16:39:11.852Z,39.90
2018-04-13T16:41:40.761Z,40.30
2018-04-13T16:44:09.649Z,40.40
2018-04-13T16:46:38.520Z,40.40
2018-04-13T16:49:07.376Z,40.50
2018-04-13T16:51:36.296Z,40.70
2018-04-13T16:54:05.219Z,40.70
2018-04-13T16:56:34.881Z,41.00
2018-04-13T16:59:03.760Z,40.90
2018-04-13T17:01:32.752Z,40.60
2018-04-13T17:04:01.639Z,40.80
2018-04-13T17:06:30.505Z,41.40
2018-04-13T17:09:00.184Z,41.80
2018-04-13T17:11:29.137Z,41.80
2018-04-13T17:13:58.018Z,42.30
2018-04-13T17:16:26.870Z,42.50
2018-04-13T17:18:55.814Z,42.80
2018-04-13T17:21:24.701Z,42.90
2018-04-13T17:23:53.683Z,42.70
2018-04-13T17:26:22.681Z,42.70
2018-04-13T17:28:51.796Z,42.70
2018-04-13T17:31:21.513Z,42.70
2018-04-13T17:33:50.368Z,42.70
2018-04-13T17:36:19.237Z,42.60
2018-04-13T17:38:49.039Z,43.30
2018-04-13T17:41:17.931Z,43.30
2018-04-13T17:43:47.565Z,43.00
2018-04-13T17:46:16.564Z,42.90
2018-04-13T17:48:45.441Z,43.60
2018-04-13T17:51:14.297Z,43.00
2018-04-13T17:53:43.165Z,43.20
2018-04-13T17:56:12.096Z,43.60
2018-04-13T17:58:41.737Z,43.70
2018-04-13T18:01:10.600Z,43.60
2018-04-13T18:03:39.459Z,43.50
2018-04-13T18:06:08.367Z,43.20
2018-04-13T18:08:37.250Z,43.60
2018-04-13T18:11:06.141Z,43.60
2018-04-13T18:13:35.033Z,44.00
2018-04-13T18:16:03.941Z,43.70
2018-04-13T18:18:33.659Z,44.00
2018-04-13T18:21:03.333Z,44.50
2018-04-13T18:23:32.265Z,44.50
2018-04-13T18:26:01.126Z,44.50
2018-04-13T18:28:30.019Z,45.30
2018-04-13T18:30:59.668Z,46.10
2018-04-13T18:33:28.622Z,46.00
2018-04-13T18:35:58.268Z,45.10
2018-04-13T18:38:27.189Z,45.00
2018-04-13T18:40:56.111Z,46.00
2018-04-13T18:43:24.996Z,45.90
2018-04-13T18:45:53.853Z,46.70
2018-04-13T18:48:22.708Z,47.40
2018-04-13T18:50:52.346Z,47.80
2018-04-13T18:53:21.201Z,48.30
2018-04-13T18:55:50.172Z,48.60
2018-04-13T18:58:20.012Z,47.80
2018-04-13T19:00:48.886Z,47.80
2018-04-13T19:03:17.829Z,47.90
2018-04-13T19:05:46.749Z,47.80
2018-04-13T19:08:15.605Z,48.10
2018-04-13T19:10:44.536Z,48.40
2018-04-13T19:13:14.241Z,48.50
2018-04-13T19:15:43.248Z,49.00
2018-04-13T19:18:12.309Z,49.00
2018-04-13T19:20:41.255Z,50.30
2018-04-13T19:23:10.135Z,49.10
2018-04-13T19:25:39.065Z,50.30
2018-04-13T19:28:08.078Z,50.10
2018-04-13T19:30:37.000Z,50.10
2018-04-13T19:33:06.676Z,50.40
2018-04-13T19:35:36.237Z,50.30
2018-04-13T19:38:05.259Z,51.80
2018-04-13T19:40:34.148Z,51.70
2018-04-13T19:43:03.017Z,51.40
2018-04-13T19:45:32.018Z,51.90
2018-04-13T19:48:01.592Z,52.80
2018-04-13T19:50:31.276Z,52.20
2018-04-13T19:53:00.173Z,52.10
2018-04-13T19:55:29.076Z,52.50
2018-04-13T19:57:58.785Z,52.50
2018-04-13T20:00:27.608Z,52.40
2018-04-13T20:02:56.526Z,52.70
2018-04-13T20:05:25.441Z,53.00
2018-04-13T20:07:54.344Z,53.30
2018-04-13T20:10:23.224Z,53.50
2018-04-13T20:12:52.939Z,53.50
2018-04-13T20:15:25.720Z,53.50
2018-04-13T20:17:54.710Z,53.40
2018-04-13T20:20:23.599Z,53.60
2018-04-13T20:22:52.476Z,53.90
2018-04-13T20:25:21.360Z,53.80
2018-04-13T20:27:50.654Z,54.00
2018-04-13T20:30:20.323Z,54.20
2018-04-13T20:32:49.245Z,54.10
2018-04-13T20:35:18.120Z,54.20
2018-04-13T20:37:47.004Z,54.10
2018-04-13T20:40:15.966Z,54.30
2018-04-13T20:42:44.893Z,54.40
2018-04-13T20:45:13.779Z,54.60
2018-04-13T20:47:42.661Z,54.70
2018-04-13T20:50:11.572Z,54.80
2018-04-13T20:52:40.454Z,54.50
2018-04-13T20:55:09.355Z,54.90
2018-04-13T20:57:38.238Z,54.70
2018-04-13T21:00:07.137Z,54.90
2018-04-13T21:02:36.372Z,55.00
2018-04-13T21:05:05.264Z,55.40
2018-04-13T21:07:34.710Z,54.60
2018-04-13T21:10:03.672Z,54.90
2018-04-13T21:12:32.565Z,54.00
2018-04-13T21:15:02.212Z,54.50
2018-04-13T21:17:31.072Z,54.40
2018-04-13T21:19:59.994Z,54.30
2018-04-13T21:22:28.848Z,54.60
2018-04-13T21:24:58.483Z,54.00
2018-04-13T21:27:27.411Z,54.00
2018-04-13T21:29:56.381Z,54.00
2018-04-13T21:32:25.278Z,53.80
2018-04-13T21:34:54.141Z,54.50
2018-04-13T21:37:23.023Z,53.60
2018-04-13T21:39:51.943Z,53.70
2018-04-13T21:42:20.883Z,53.70
2018-04-13T21:44:49.741Z,53.80
2018-04-13T21:47:18.672Z,53.80
2018-04-13T21:49:48.310Z,53.80
2018-04-13T21:52:17.231Z,53.70
2018-04-13T21:54:46.108Z,54.00
2018-04-13T21:57:15.006Z,53.60
2018-04-13T21:59:44.104Z,53.50
2018-04-13T22:02:12.970Z,53.60
2018-04-13T22:04:41.868Z,53.40
2018-04-13T22:07:10.732Z,53.30
2018-04-13T22:09:39.676Z,53.00
2018-04-13T22:12:26.615Z,52.90
2018-04-13T22:14:56.398Z,53.10
2018-04-13T22:17:25.274Z,53.50
2018-04-13T22:19:54.125Z,53.70
2018-04-13T22:22:23.027Z,53.70
2018-04-13T22:24:51.912Z,54.00
2018-04-13T22:27:20.765Z,54.30
2018-04-13T22:29:49.678Z,53.70
2018-04-13T22:32:19.314Z,53.90
2018-04-13T22:34:48.191Z,53.90
2018-04-13T22:37:17.058Z,54.10
2018-04-13T22:39:45.941Z,54.10
2018-04-13T22:42:14.914Z,54.60
2018-04-13T22:44:43.828Z,54.40
2018-04-13T22:47:12.696Z,55.40
2018-04-13T22:49:41.564Z,56.80
2018-04-13T22:52:10.471Z,57.30
2018-04-13T22:54:39.328Z,57.70
2018-04-13T22:57:08.215Z,57.70
2018-04-13T22:59:37.104Z,57.50
2018-04-13T23:02:06.354Z,57.60
2018-04-13T23:04:35.232Z,58.80
2018-04-13T23:07:04.126Z,58.90
2018-04-13T23:09:33.088Z,58.40
2018-04-13T23:12:01.944Z,58.80
2018-04-13T23:14:31.649Z,58.70
2018-04-13T23:17:01.279Z,58.70
2018-04-13T23:19:30.166Z,58.70
2018-04-13T23:21:59.051Z,58.60
2018-04-13T23:24:28.785Z,58.70
2018-04-13T23:26:57.975Z,58.70
2018-04-13T23:29:26.871Z,59.30
2018-04-13T23:31:55.779Z,59.80
2018-04-13T23:34:24.668Z,60.10
2018-04-13T23:36:53.596Z,60.10
2018-04-13T23:39:22.595Z,60.80
2018-04-13T23:41:52.219Z,63.20
2018-04-13T23:44:21.137Z,63.20
2018-04-13T23:46:50.040Z,63.20
2018-04-13T23:49:18.900Z,63.70
2018-04-13T23:51:47.780Z,63.30
2018-04-13T23:54:16.644Z,62.90
2018-04-13T23:56:45.495Z,63.10
2018-04-13T23:59:14.480Z,63.10
